Flight Track Log - Related Links

Times and Time Zones

All times are in EDT time to prevent confusion due to time zone crossing. See the CTL13 flight status page for this flight to view local times or setup timezone preferences in your user account.

Time Position Orientation Groundspeed Altitude Reporting Facility
EDT Latitude Longitude Course Direction KTS MPH feet Rate Location/Type
Thu 08:37:45 PM 39.9000 -86.3000 323° Northwest 152 175 1,900  Level Indianapolis TRACON
Thu 08:38:39 PM 39.9333 -86.3000 360° North 147 169 2,300 391 Climbing Indianapolis TRACON
Thu 08:39:17 PM 39.9522 -86.3208 320° Northwest 142 163 2,500 367 Climbing Chicago Center
Thu 08:40:17 PM 39.9850 -86.3467 329° Northwest 143 165 2,900 393 Climbing Indianapolis Center
Thu 08:41:19 PM 40.0181 -86.3722 329° Northwest 141 162 3,300 263 Climbing Indianapolis Center
Thu 08:43:00 PM 39.9293 -86.2520 21° North  Level FlightAware Approximate
Thu 08:43:00 PM 40.0604 -86.4135 323° Northwest  Level FlightAware Approximate
Thu 08:44:28 PM 40.1228 -86.4575 323° Northwest 138 159 4,000  Level Chicago Center
Thu 08:45:27 PM 40.1586 -86.4850 330° Northwest 145 167 4,000  Level Indianapolis Center
Thu 08:46:28 PM 40.1933 -86.5128 329° Northwest 147 169 4,000  Level Indianapolis Center
Thu 08:47:12 PM 40.2211 -86.5369 326° Northwest 146 168 4,000  Level Chicago Center
Thu 08:48:13 PM 40.2578 -86.5664 329° Northwest 146 168 4,000  Level Chicago Center
Thu 08:49:14 PM 40.2922 -86.5903 332° Northwest 145 167 4,000  Level Chicago Center
Thu 08:50:14 PM 40.3289 -86.6197 329° Northwest 146 168 4,000  Level Chicago Center
Thu 08:51:15 PM 40.3633 -86.6436 332° Northwest 147 169 4,000  Level Chicago Center
Thu 08:52:15 PM 40.3978 -86.6758 325° Northwest 146 168 4,000  Level Chicago Center
Thu 08:53:16 PM 40.4342 -86.7081 326° Northwest 146 168 4,000  Level Chicago Center
Thu 08:53:47 PM 40.4503 -86.7194 332° Northwest 148 170 4,000  Level Chicago Center
Thu 08:54:17 PM 40.4664 -86.7347 324° Northwest 147 169 4,000  Level Chicago Center
Thu 08:54:49 PM 40.4856 -86.7431 342° North 145 167 4,000  Level Chicago Center
Thu 08:55:23 PM 40.5072 -86.7619 326° Northwest 146 168 4,000  Level Chicago Center
Thu 08:56:24 PM 40.5417 -86.7889 329° Northwest 146 168 4,000  Level Chicago Center
Thu 08:57:25 PM 40.5803 -86.8161 332° Northwest 147 169 4,000  Level Chicago Center
Thu 08:57:55 PM 40.5992 -86.8289 333° Northwest 149 171 4,000  Level Chicago Center
Thu 08:58:25 PM 40.6169 -86.8431 329° Northwest 146 168 4,000  Level Chicago Center
Thu 08:58:57 PM 40.6342 -86.8544 333° Northwest 145 167 4,000  Level Chicago Center
Thu 08:59:59 PM 40.6711 -86.8800 332° Northwest 148 170 4,000  Level Chicago Center
Thu 09:01:01 PM 40.7047 -86.9081 328° Northwest 145 167 4,000 -48 Level Chicago Center
Thu 09:02:03 PM 40.7425 -86.9342 332° Northwest 148 170 3,900  Descending Chicago Center
Thu 09:03:05 PM 40.7756 -86.9614 328° Northwest 143 165 4,000 48 Climbing Chicago Center
Thu 09:04:07 PM 40.8172 -86.9942 329° Northwest 145 167 4,000  Level Chicago Center
Thu 09:05:09 PM 40.8536 -87.0203 332° Northwest 147 169 4,000  Level Chicago Center
Thu 09:06:11 PM 40.8878 -87.0489 328° Northwest 147 169 4,000 -48 Level Chicago Center
Thu 09:07:13 PM 40.9236 -87.0736 332° Northwest 146 168 3,900  Descending Chicago Center
Thu 09:08:15 PM 40.9575 -87.1008 329° Northwest 145 167 4,000 48 Climbing Chicago Center
Thu 09:09:17 PM 41.0008 -87.1311 332° Northwest 145 167 4,000  Level Chicago Center
Thu 09:10:19 PM 41.0328 -87.1608 325° Northwest 145 167 4,000  Level Chicago Center
Thu 09:11:21 PM 41.0672 -87.1881 329° Northwest 144 166 4,000  Level Chicago Center
Thu 09:12:23 PM 41.1019 -87.2156 329° Northwest 146 168 4,000 -48 Level Chicago Center
Thu 09:13:25 PM 41.1364 -87.2422 330° Northwest 145 167 3,900  Descending Chicago Center
Thu 09:14:27 PM 41.1792 -87.2742 331° Northwest 146 168 4,000 48 Climbing Chicago Center
Thu 09:15:29 PM 41.2139 -87.3031 328° Northwest 147 169 4,000  Level Chicago Center
Thu 09:16:31 PM 41.2481 -87.3300 329° Northwest 146 168 4,000  Level Chicago Center
Thu 09:17:33 PM 41.2814 -87.3578 328° Northwest 144 166 4,000  Level Chicago Center
Thu 09:18:35 PM 41.3161 -87.3853 329° Northwest 146 168 4,000  Level Chicago Center
Thu 09:19:37 PM 41.3492 -87.4142 327° Northwest 145 167 4,000  Level Chicago Center
Thu 09:20:39 PM 41.3894 -87.4467 329° Northwest 143 165 4,000  Level Chicago Center
Thu 09:21:41 PM 41.4317 -87.4469 360° North 151 174 4,000  Level Chicago Center
Thu 09:22:43 PM 41.4717 -87.4508 356° North 148 170 4,000  Level Chicago Center
Thu 09:23:44 PM 41.5125 -87.4544 356° North 146 168 4,000  Level Chicago Center
Thu 09:24:46 PM 41.5522 -87.4631 351° North 146 168 4,000 48 Level Chicago Center
Thu 09:25:48 PM 41.6000 -87.4758 349° North 148 170 4,100  Climbing Chicago Center
Thu 09:26:50 PM 41.6244 -87.4983 325° Northwest 170 196 4,000 -48 Descending Chicago Center
Thu 09:27:52 PM 41.5878 -87.5372 218° Southwest 174 200 4,000 -145 Level Chicago Center
Thu 09:28:54 PM 41.5517 -87.5786 221° Southwest 173 199 3,700 -435 Descending Chicago Center
Thu 09:29:56 PM 41.5411 -87.6350 256° West 170 196 3,100 -341 Descending Chicago Center
Thu 09:30:57 PM 41.5647 -87.6950 298° West 160 184 3,000 -49 Descending Chicago Center
Thu 09:31:59 PM 41.5811 -87.7428 295° West 152 175 3,000  Level Chicago Center
Thu 09:33:01 PM 41.5831 -87.7892 273° West 157 181 3,000 -48 Level Chicago Center
Thu 09:34:03 PM 41.5589 -87.8403 238° Southwest 160 184 2,900 48 Descending Chicago Center
Thu 09:35:05 PM 41.5381 -87.8903 241° Southwest 159 183 3,100  Climbing Chicago Center
Thu 09:36:07 PM 41.5628 -87.9403 303° West 148 170 2,900 -195 Descending Chicago Center
Thu 09:37:08 PM 41.6044 -87.9297 11° North 159 183 2,700 -195 Descending Chicago Center
Thu 09:38:10 PM 41.6436 -87.9008 29° Northeast 161 185 2,500 -194 Descending Chicago Center
Thu 09:39:12 PM 41.6806 -87.8631 37° Northeast 165 190 2,300 -97 Descending Chicago Center
Thu 09:40:14 PM 41.7156 -87.8269 38° Northeast 164 189 2,300 -341 Level Chicago Center
Thu 09:41:15 PM 41.7506 -87.7922 37° Northeast 161 185 1,600 -683 Descending Chicago Center
Thu 09:42:17 PM 41.7828 -87.7583 38° Northeast 153 176 900 -677 Descending Chicago Center

Login

Don't have an account? Register now (free) for customized features, flight alerts, and more!